sensor_id;sensor_type;location;lat;lon;timestamp;temperature;humidity
11617;DHT22;5864;52.998;9.068;2023-03-18T00:00:28;11.40;99.90
11617;DHT22;5864;52.998;9.068;2023-03-18T00:03:13;11.40;99.90
11617;DHT22;5864;52.998;9.068;2023-03-18T00:06:04;11.30;99.90
11617;DHT22;5864;52.998;9.068;2023-03-18T00:08:51;11.30;99.90
11617;DHT22;5864;52.998;9.068;2023-03-18T00:11:37;11.20;99.90
11617;DHT22;5864;52.998;9.068;2023-03-18T00:14:24;11.20;99.90
11617;DHT22;5864;52.998;9.068;2023-03-18T00:17:10;11.20;99.90
11617;DHT22;5864;52.998;9.068;2023-03-18T00:19:55;11.20;99.90
11617;DHT22;5864;52.998;9.068;2023-03-18T00:22:42;11.20;99.90
11617;DHT22;5864;52.998;9.068;2023-03-18T00:25:30;11.20;99.90
11617;DHT22;5864;52.998;9.068;2023-03-18T00:28:16;11.20;99.90
11617;DHT22;5864;52.998;9.068;2023-03-18T00:31:03;11.20;99.90
11617;DHT22;5864;52.998;9.068;2023-03-18T00:33:51;11.20;99.90
11617;DHT22;5864;52.998;9.068;2023-03-18T00:36:37;11.20;99.90
11617;DHT22;5864;52.998;9.068;2023-03-18T00:39:23;11.20;99.90
11617;DHT22;5864;52.998;9.068;2023-03-18T00:42:13;11.20;99.90
11617;DHT22;5864;52.998;9.068;2023-03-18T00:44:59;11.20;99.90
11617;DHT22;5864;52.998;9.068;2023-03-18T00:47:47;11.20;99.90
11617;DHT22;5864;52.998;9.068;2023-03-18T00:50:33;11.30;99.90
11617;DHT22;5864;52.998;9.068;2023-03-18T00:53:19;11.30;99.90
11617;DHT22;5864;52.998;9.068;2023-03-18T00:56:06;11.20;99.90
11617;DHT22;5864;52.998;9.068;2023-03-18T00:58:54;11.20;99.90
11617;DHT22;5864;52.998;9.068;2023-03-18T01:01:40;11.20;99.90
11617;DHT22;5864;52.998;9.068;2023-03-18T01:04:25;11.20;99.90
11617;DHT22;5864;52.998;9.068;2023-03-18T01:07:11;11.30;99.90
11617;DHT22;5864;52.998;9.068;2023-03-18T01:09:57;11.20;99.90
11617;DHT22;5864;52.998;9.068;2023-03-18T01:12:43;11.20;99.90
11617;DHT22;5864;52.998;9.068;2023-03-18T01:15:31;11.20;99.90
11617;DHT22;5864;52.998;9.068;2023-03-18T01:18:17;11.20;99.90
11617;DHT22;5864;52.998;9.068;2023-03-18T01:21:03;11.20;99.90
11617;DHT22;5864;52.998;9.068;2023-03-18T01:23:49;11.10;99.90
11617;DHT22;5864;52.998;9.068;2023-03-18T01:26:34;11.10;99.90
11617;DHT22;5864;52.998;9.068;2023-03-18T01:29:20;11.10;99.90
11617;DHT22;5864;52.998;9.068;2023-03-18T01:32:08;11.10;99.90
11617;DHT22;5864;52.998;9.068;2023-03-18T01:34:54;11.10;99.90
11617;DHT22;5864;52.998;9.068;2023-03-18T01:37:40;11.10;99.90
11617;DHT22;5864;52.998;9.068;2023-03-18T01:40:27;11.80;99.90
11617;DHT22;5864;52.998;9.068;2023-03-18T01:43:16;11.10;99.90
11617;DHT22;5864;52.998;9.068;2023-03-18T01:49:27;11.10;99.90
11617;DHT22;5864;52.998;9.068;2023-03-18T01:52:16;11.10;99.90
11617;DHT22;5864;52.998;9.068;2023-03-18T01:55:06;11.10;99.90
11617;DHT22;5864;52.998;9.068;2023-03-18T01:57:54;11.10;99.90
11617;DHT22;5864;52.998;9.068;2023-03-18T02:00:43;11.10;99.90
11617;DHT22;5864;52.998;9.068;2023-03-18T02:03:30;11.10;99.90
11617;DHT22;5864;52.998;9.068;2023-03-18T02:06:17;11.30;99.90
11617;DHT22;5864;52.998;9.068;2023-03-18T02:09:04;11.00;99.90
11617;DHT22;5864;52.998;9.068;2023-03-18T02:11:50;10.90;99.90
11617;DHT22;5864;52.998;9.068;2023-03-18T02:14:36;10.90;99.90
11617;DHT22;5864;52.998;9.068;2023-03-18T02:17:24;10.90;99.90
11617;DHT22;5864;52.998;9.068;2023-03-18T02:20:19;10.80;99.90
11617;DHT22;5864;52.998;9.068;2023-03-18T02:23:11;10.70;99.90
11617;DHT22;5864;52.998;9.068;2023-03-18T02:26:04;10.70;99.90
11617;DHT22;5864;52.998;9.068;2023-03-18T02:28:55;10.70;99.90
11617;DHT22;5864;52.998;9.068;2023-03-18T02:31:43;11.70;99.90
11617;DHT22;5864;52.998;9.068;2023-03-18T02:34:30;10.60;99.90
11617;DHT22;5864;52.998;9.068;2023-03-18T02:37:16;10.90;99.90
11617;DHT22;5864;52.998;9.068;2023-03-18T02:40:13;10.60;99.90
11617;DHT22;5864;52.998;9.068;2023-03-18T02:43:16;10.60;99.90
11617;DHT22;5864;52.998;9.068;2023-03-18T02:46:16;10.50;99.90
11617;DHT22;5864;52.998;9.068;2023-03-18T02:49:06;10.60;99.90
11617;DHT22;5864;52.998;9.068;2023-03-18T02:51:52;10.60;99.90
11617;DHT22;5864;52.998;9.068;2023-03-18T02:54:38;10.60;99.90
11617;DHT22;5864;52.998;9.068;2023-03-18T02:57:24;10.60;99.90
11617;DHT22;5864;52.998;9.068;2023-03-18T03:00:10;10.60;99.90
11617;DHT22;5864;52.998;9.068;2023-03-18T03:02:58;10.50;99.90
11617;DHT22;5864;52.998;9.068;2023-03-18T03:05:46;10.50;99.90
11617;DHT22;5864;52.998;9.068;2023-03-18T03:08:31;10.50;99.90
11617;DHT22;5864;52.998;9.068;2023-03-18T03:11:19;10.50;99.90
11617;DHT22;5864;52.998;9.068;2023-03-18T03:14:05;10.70;99.90
11617;DHT22;5864;52.998;9.068;2023-03-18T03:16:51;10.50;99.90
11617;DHT22;5864;52.998;9.068;2023-03-18T03:19:38;10.50;99.90
11617;DHT22;5864;52.998;9.068;2023-03-18T03:22:24;10.40;99.90
11617;DHT22;5864;52.998;9.068;2023-03-18T03:25:10;10.40;99.90
11617;DHT22;5864;52.998;9.068;2023-03-18T03:27:55;10.40;99.90
11617;DHT22;5864;52.998;9.068;2023-03-18T03:30:41;10.30;99.90
11617;DHT22;5864;52.998;9.068;2023-03-18T03:33:27;10.30;99.90
11617;DHT22;5864;52.998;9.068;2023-03-18T03:36:15;10.30;99.90
11617;DHT22;5864;52.998;9.068;2023-03-18T03:39:02;10.30;99.90
11617;DHT22;5864;52.998;9.068;2023-03-18T03:41:49;10.20;99.90
11617;DHT22;5864;52.998;9.068;2023-03-18T03:44:36;10.20;99.90
11617;DHT22;5864;52.998;9.068;2023-03-18T03:47:21;10.80;99.90
11617;DHT22;5864;52.998;9.068;2023-03-18T03:50:09;10.30;99.90
11617;DHT22;5864;52.998;9.068;2023-03-18T03:52:56;10.20;99.90
11617;DHT22;5864;52.998;9.068;2023-03-18T03:55:43;10.20;99.90
11617;DHT22;5864;52.998;9.068;2023-03-18T03:58:28;10.10;99.90
11617;DHT22;5864;52.998;9.068;2023-03-18T04:01:14;10.20;99.90
11617;DHT22;5864;52.998;9.068;2023-03-18T04:04:00;10.20;99.90
11617;DHT22;5864;52.998;9.068;2023-03-18T04:06:46;10.20;99.90
11617;DHT22;5864;52.998;9.068;2023-03-18T04:09:33;10.30;99.90
11617;DHT22;5864;52.998;9.068;2023-03-18T04:12:19;11.00;99.90
11617;DHT22;5864;52.998;9.068;2023-03-18T04:15:06;10.30;99.90
11617;DHT22;5864;52.998;9.068;2023-03-18T04:17:53;10.30;99.90
11617;DHT22;5864;52.998;9.068;2023-03-18T04:20:38;10.40;99.90
11617;DHT22;5864;52.998;9.068;2023-03-18T04:23:23;10.40;99.90
11617;DHT22;5864;52.998;9.068;2023-03-18T04:26:12;10.40;99.90
11617;DHT22;5864;52.998;9.068;2023-03-18T04:28:57;10.50;99.90
11617;DHT22;5864;52.998;9.068;2023-03-18T04:31:43;10.60;99.90
11617;DHT22;5864;52.998;9.068;2023-03-18T04:34:29;10.60;99.90
11617;DHT22;5864;52.998;9.068;2023-03-18T04:37:16;10.60;99.90
11617;DHT22;5864;52.998;9.068;2023-03-18T04:40:04;10.60;99.90
11617;DHT22;5864;52.998;9.068;2023-03-18T04:42:52;10.70;99.90
11617;DHT22;5864;52.998;9.068;2023-03-18T04:45:38;10.60;99.90
11617;DHT22;5864;52.998;9.068;2023-03-18T04:48:23;10.60;99.90
11617;DHT22;5864;52.998;9.068;2023-03-18T04:51:10;10.60;99.90
11617;DHT22;5864;52.998;9.068;2023-03-18T04:53:55;10.70;99.90
11617;DHT22;5864;52.998;9.068;2023-03-18T04:56:41;10.60;99.90
11617;DHT22;5864;52.998;9.068;2023-03-18T04:59:28;10.60;99.90
11617;DHT22;5864;52.998;9.068;2023-03-18T05:02:14;10.60;99.90
11617;DHT22;5864;52.998;9.068;2023-03-18T05:05:00;10.60;99.90
11617;DHT22;5864;52.998;9.068;2023-03-18T05:07:45;10.60;99.90
11617;DHT22;5864;52.998;9.068;2023-03-18T05:10:30;10.70;99.90
11617;DHT22;5864;52.998;9.068;2023-03-18T05:13:16;10.70;99.90
11617;DHT22;5864;52.998;9.068;2023-03-18T05:16:04;10.70;99.90
11617;DHT22;5864;52.998;9.068;2023-03-18T05:18:49;10.70;99.90
11617;DHT22;5864;52.998;9.068;2023-03-18T05:21:37;10.70;99.90
11617;DHT22;5864;52.998;9.068;2023-03-18T05:24:23;10.60;99.90
11617;DHT22;5864;52.998;9.068;2023-03-18T05:27:09;10.60;99.90
11617;DHT22;5864;52.998;9.068;2023-03-18T05:29:55;10.60;99.90
11617;DHT22;5864;52.998;9.068;2023-03-18T05:32:42;10.50;99.90
11617;DHT22;5864;52.998;9.068;2023-03-18T05:35:27;10.50;99.90
11617;DHT22;5864;52.998;9.068;2023-03-18T05:38:14;10.50;99.90
11617;DHT22;5864;52.998;9.068;2023-03-18T05:41:00;10.50;99.90
11617;DHT22;5864;52.998;9.068;2023-03-18T05:43:45;10.50;99.90
11617;DHT22;5864;52.998;9.068;2023-03-18T05:46:32;10.50;99.90
11617;DHT22;5864;52.998;9.068;2023-03-18T05:49:19;10.50;99.90
11617;DHT22;5864;52.998;9.068;2023-03-18T05:52:05;10.40;99.90
11617;DHT22;5864;52.998;9.068;2023-03-18T05:54:50;10.40;99.90
11617;DHT22;5864;52.998;9.068;2023-03-18T05:57:35;10.40;99.90
11617;DHT22;5864;52.998;9.068;2023-03-18T06:00:22;10.50;99.90
11617;DHT22;5864;52.998;9.068;2023-03-18T06:03:08;10.50;99.90
11617;DHT22;5864;52.998;9.068;2023-03-18T06:05:55;10.50;99.90
11617;DHT22;5864;52.998;9.068;2023-03-18T06:08:40;10.40;99.90
11617;DHT22;5864;52.998;9.068;2023-03-18T06:11:26;10.50;99.90
11617;DHT22;5864;52.998;9.068;2023-03-18T06:14:12;10.50;99.90
11617;DHT22;5864;52.998;9.068;2023-03-18T06:16:58;10.60;99.90
11617;DHT22;5864;52.998;9.068;2023-03-18T06:19:43;10.50;99.90
11617;DHT22;5864;52.998;9.068;2023-03-18T06:22:31;10.50;99.90
11617;DHT22;5864;52.998;9.068;2023-03-18T06:25:19;10.40;99.90
11617;DHT22;5864;52.998;9.068;2023-03-18T06:28:04;10.40;99.90
11617;DHT22;5864;52.998;9.068;2023-03-18T06:30:53;10.40;99.90
11617;DHT22;5864;52.998;9.068;2023-03-18T06:33:39;10.40;99.90
11617;DHT22;5864;52.998;9.068;2023-03-18T06:36:25;10.40;99.90
11617;DHT22;5864;52.998;9.068;2023-03-18T06:39:12;10.50;99.90
11617;DHT22;5864;52.998;9.068;2023-03-18T06:41:57;10.50;99.90
11617;DHT22;5864;52.998;9.068;2023-03-18T06:44:43;10.50;99.90
11617;DHT22;5864;52.998;9.068;2023-03-18T06:47:34;10.50;99.90
11617;DHT22;5864;52.998;9.068;2023-03-18T06:50:19;10.40;99.90
11617;DHT22;5864;52.998;9.068;2023-03-18T06:53:05;10.50;99.90
11617;DHT22;5864;52.998;9.068;2023-03-18T06:55:52;10.50;99.90
11617;DHT22;5864;52.998;9.068;2023-03-18T06:58:39;10.50;99.90
11617;DHT22;5864;52.998;9.068;2023-03-18T07:01:25;10.50;99.90
11617;DHT22;5864;52.998;9.068;2023-03-18T07:04:12;10.50;99.90
11617;DHT22;5864;52.998;9.068;2023-03-18T07:06:59;10.50;99.90
11617;DHT22;5864;52.998;9.068;2023-03-18T07:09:44;10.50;99.90
11617;DHT22;5864;52.998;9.068;2023-03-18T07:12:31;10.50;99.90
11617;DHT22;5864;52.998;9.068;2023-03-18T07:15:17;10.60;99.90
11617;DHT22;5864;52.998;9.068;2023-03-18T07:18:04;10.60;99.90
11617;DHT22;5864;52.998;9.068;2023-03-18T07:20:51;10.60;99.90
11617;DHT22;5864;52.998;9.068;2023-03-18T07:23:36;8.50;99.90
11617;DHT22;5864;52.998;9.068;2023-03-18T07:26:22;10.70;99.90
11617;DHT22;5864;52.998;9.068;2023-03-18T07:29:09;10.70;99.90
11617;DHT22;5864;52.998;9.068;2023-03-18T07:31:54;11.70;99.90
11617;DHT22;5864;52.998;9.068;2023-03-18T07:34:41;11.00;99.90
11617;DHT22;5864;52.998;9.068;2023-03-18T07:37:27;11.00;99.90
11617;DHT22;5864;52.998;9.068;2023-03-18T07:40:13;12.00;99.90
11617;DHT22;5864;52.998;9.068;2023-03-18T07:43:00;11.10;99.90
11617;DHT22;5864;52.998;9.068;2023-03-18T07:45:47;11.20;99.90
11617;DHT22;5864;52.998;9.068;2023-03-18T07:48:32;11.20;99.90
11617;DHT22;5864;52.998;9.068;2023-03-18T07:51:18;11.40;99.90
11617;DHT22;5864;52.998;9.068;2023-03-18T07:54:04;11.30;99.90
11617;DHT22;5864;52.998;9.068;2023-03-18T07:56:49;11.30;99.90
11617;DHT22;5864;52.998;9.068;2023-03-18T07:59:35;11.30;99.90
11617;DHT22;5864;52.998;9.068;2023-03-18T08:02:24;11.40;99.90
11617;DHT22;5864;52.998;9.068;2023-03-18T08:05:10;11.40;99.90
11617;DHT22;5864;52.998;9.068;2023-03-18T08:07:56;12.80;99.90
11617;DHT22;5864;52.998;9.068;2023-03-18T08:10:42;11.40;99.90
11617;DHT22;5864;52.998;9.068;2023-03-18T08:13:28;11.50;99.90
11617;DHT22;5864;52.998;9.068;2023-03-18T08:16:15;11.70;99.90
11617;DHT22;5864;52.998;9.068;2023-03-18T08:19:02;11.60;99.90
11617;DHT22;5864;52.998;9.068;2023-03-18T08:21:49;11.60;99.90
11617;DHT22;5864;52.998;9.068;2023-03-18T08:24:34;11.70;99.90
11617;DHT22;5864;52.998;9.068;2023-03-18T08:27:21;11.70;99.90
11617;DHT22;5864;52.998;9.068;2023-03-18T08:30:09;11.70;99.90
11617;DHT22;5864;52.998;9.068;2023-03-18T08:32:55;11.70;99.90
11617;DHT22;5864;52.998;9.068;2023-03-18T08:35:42;11.70;99.90
11617;DHT22;5864;52.998;9.068;2023-03-18T08:38:27;11.70;99.90
11617;DHT22;5864;52.998;9.068;2023-03-18T08:41:14;11.80;99.90
11617;DHT22;5864;52.998;9.068;2023-03-18T08:44:00;11.80;99.90
11617;DHT22;5864;52.998;9.068;2023-03-18T08:46:46;11.90;99.90
11617;DHT22;5864;52.998;9.068;2023-03-18T08:49:31;12.60;99.90
11617;DHT22;5864;52.998;9.068;2023-03-18T08:52:18;12.00;99.90
11617;DHT22;5864;52.998;9.068;2023-03-18T08:55:04;12.10;99.90
11617;DHT22;5864;52.998;9.068;2023-03-18T08:57:51;12.10;99.90
11617;DHT22;5864;52.998;9.068;2023-03-18T09:00:38;12.10;99.90
11617;DHT22;5864;52.998;9.068;2023-03-18T09:03:24;12.20;99.90
11617;DHT22;5864;52.998;9.068;2023-03-18T09:06:10;12.20;99.90
11617;DHT22;5864;52.998;9.068;2023-03-18T09:08:57;12.30;99.90
11617;DHT22;5864;52.998;9.068;2023-03-18T09:11:43;12.40;99.90
11617;DHT22;5864;52.998;9.068;2023-03-18T09:14:31;12.50;99.90
11617;DHT22;5864;52.998;9.068;2023-03-18T09:17:18;12.50;99.90
11617;DHT22;5864;52.998;9.068;2023-03-18T09:20:04;12.60;99.90
11617;DHT22;5864;52.998;9.068;2023-03-18T09:22:51;12.70;99.90
11617;DHT22;5864;52.998;9.068;2023-03-18T09:25:38;12.70;99.90
11617;DHT22;5864;52.998;9.068;2023-03-18T09:28:26;12.70;99.90
11617;DHT22;5864;52.998;9.068;2023-03-18T09:31:11;12.60;99.90
11617;DHT22;5864;52.998;9.068;2023-03-18T09:33:58;12.60;99.90
11617;DHT22;5864;52.998;9.068;2023-03-18T09:36:44;12.60;99.90
11617;DHT22;5864;52.998;9.068;2023-03-18T09:39:34;12.60;99.90
11617;DHT22;5864;52.998;9.068;2023-03-18T09:42:31;12.50;99.90
11617;DHT22;5864;52.998;9.068;2023-03-18T09:45:25;12.50;99.90
11617;DHT22;5864;52.998;9.068;2023-03-18T09:48:36;12.60;99.90
11617;DHT22;5864;52.998;9.068;2023-03-18T09:51:34;12.70;99.90
11617;DHT22;5864;52.998;9.068;2023-03-18T09:54:29;12.80;99.90
11617;DHT22;5864;52.998;9.068;2023-03-18T09:57:20;13.00;99.90
11617;DHT22;5864;52.998;9.068;2023-03-18T10:00:18;13.20;99.90
11617;DHT22;5864;52.998;9.068;2023-03-18T10:03:09;13.30;99.90
11617;DHT22;5864;52.998;9.068;2023-03-18T10:05:59;13.50;99.90
11617;DHT22;5864;52.998;9.068;2023-03-18T10:08:52;13.50;99.90
11617;DHT22;5864;52.998;9.068;2023-03-18T10:11:41;13.60;99.90
11617;DHT22;5864;52.998;9.068;2023-03-18T10:14:32;13.70;99.90
11617;DHT22;5864;52.998;9.068;2023-03-18T10:17:26;13.80;99.90
11617;DHT22;5864;52.998;9.068;2023-03-18T10:20:18;14.00;99.90
11617;DHT22;5864;52.998;9.068;2023-03-18T10:23:10;14.10;99.90
11617;DHT22;5864;52.998;9.068;2023-03-18T10:26:03;14.30;99.90
11617;DHT22;5864;52.998;9.068;2023-03-18T10:29:12;14.40;99.90
11617;DHT22;5864;52.998;9.068;2023-03-18T10:32:11;14.60;99.90
11617;DHT22;5864;52.998;9.068;2023-03-18T10:35:07;14.80;99.90
11617;DHT22;5864;52.998;9.068;2023-03-18T10:38:02;15.10;99.90
11617;DHT22;5864;52.998;9.068;2023-03-18T10:40:48;15.40;84.40
11617;DHT22;5864;52.998;9.068;2023-03-18T10:43:34;15.70;61.80
11617;DHT22;5864;52.998;9.068;2023-03-18T10:46:20;16.10;41.70
11617;DHT22;5864;52.998;9.068;2023-03-18T10:49:10;16.10;20.70
11617;DHT22;5864;52.998;9.068;2023-03-18T10:52:04;16.10;1.00
11617;DHT22;5864;52.998;9.068;2023-03-18T10:54:51;16.20;1.00
11617;DHT22;5864;52.998;9.068;2023-03-18T10:57:37;16.10;1.00
11617;DHT22;5864;52.998;9.068;2023-03-18T11:00:27;16.00;1.00
11617;DHT22;5864;52.998;9.068;2023-03-18T11:03:19;16.10;1.00
11617;DHT22;5864;52.998;9.068;2023-03-18T11:06:14;16.30;1.00
11617;DHT22;5864;52.998;9.068;2023-03-18T11:09:04;16.50;1.00
11617;DHT22;5864;52.998;9.068;2023-03-18T11:11:56;16.70;1.00
11617;DHT22;5864;52.998;9.068;2023-03-18T11:14:46;16.80;1.00
11617;DHT22;5864;52.998;9.068;2023-03-18T11:17:33;16.60;1.00
11617;DHT22;5864;52.998;9.068;2023-03-18T11:20:21;16.90;1.00
11617;DHT22;5864;52.998;9.068;2023-03-18T11:23:15;17.50;1.00
11617;DHT22;5864;52.998;9.068;2023-03-18T11:26:07;18.30;99.90
11617;DHT22;5864;52.998;9.068;2023-03-18T11:28:54;18.90;1.00
11617;DHT22;5864;52.998;9.068;2023-03-18T11:31:47;18.90;1.00
11617;DHT22;5864;52.998;9.068;2023-03-18T11:34:34;19.10;1.00
11617;DHT22;5864;52.998;9.068;2023-03-18T11:37:20;19.10;1.00
11617;DHT22;5864;52.998;9.068;2023-03-18T11:40:22;19.10;1.00
11617;DHT22;5864;52.998;9.068;2023-03-18T11:43:16;18.90;99.90
11617;DHT22;5864;52.998;9.068;2023-03-18T11:46:04;18.80;18.10
11617;DHT22;5864;52.998;9.068;2023-03-18T11:48:51;18.50;99.90
11617;DHT22;5864;52.998;9.068;2023-03-18T11:51:41;18.00;1.00
11617;DHT22;5864;52.998;9.068;2023-03-18T11:54:53;17.70;1.00
11617;DHT22;5864;52.998;9.068;2023-03-18T11:58:02;18.00;99.90
11617;DHT22;5864;52.998;9.068;2023-03-18T12:00:54;18.10;24.60
11617;DHT22;5864;52.998;9.068;2023-03-18T12:04:12;18.10;1.00
11617;DHT22;5864;52.998;9.068;2023-03-18T12:07:15;18.20;99.90
11617;DHT22;5864;52.998;9.068;2023-03-18T12:10:15;18.50;1.00
11617;DHT22;5864;52.998;9.068;2023-03-18T12:13:21;18.60;99.90
11617;DHT22;5864;52.998;9.068;2023-03-18T12:16:19;18.70;99.90
11617;DHT22;5864;52.998;9.068;2023-03-18T12:19:30;18.80;1.00
11617;DHT22;5864;52.998;9.068;2023-03-18T12:22:33;18.90;1.00
11617;DHT22;5864;52.998;9.068;2023-03-18T12:25:44;18.70;99.90
11617;DHT22;5864;52.998;9.068;2023-03-18T12:28:47;18.90;1.00
11617;DHT22;5864;52.998;9.068;2023-03-18T12:31:51;18.80;27.80
11617;DHT22;5864;52.998;9.068;2023-03-18T12:34:59;18.90;99.90
11617;DHT22;5864;52.998;9.068;2023-03-18T12:38:07;18.50;1.00
11617;DHT22;5864;52.998;9.068;2023-03-18T12:41:04;18.70;1.00
11617;DHT22;5864;52.998;9.068;2023-03-18T12:44:01;18.70;1.00
11617;DHT22;5864;52.998;9.068;2023-03-18T12:46:58;18.60;99.90
11617;DHT22;5864;52.998;9.068;2023-03-18T12:49:48;18.60;99.90
11617;DHT22;5864;52.998;9.068;2023-03-18T12:52:38;18.10;37.40
11617;DHT22;5864;52.998;9.068;2023-03-18T12:55:28;17.90;1.00
11617;DHT22;5864;52.998;9.068;2023-03-18T12:58:17;18.20;1.00
11617;DHT22;5864;52.998;9.068;2023-03-18T13:01:07;18.60;1.00
11617;DHT22;5864;52.998;9.068;2023-03-18T13:04:05;18.40;99.90
11617;DHT22;5864;52.998;9.068;2023-03-18T13:06:57;18.50;1.00
11617;DHT22;5864;52.998;9.068;2023-03-18T13:09:48;18.40;99.90
11617;DHT22;5864;52.998;9.068;2023-03-18T13:12:37;18.70;99.90
11617;DHT22;5864;52.998;9.068;2023-03-18T13:15:29;19.10;99.90
11617;DHT22;5864;52.998;9.068;2023-03-18T13:18:20;19.10;99.90
11617;DHT22;5864;52.998;9.068;2023-03-18T13:21:12;19.40;99.90
11617;DHT22;5864;52.998;9.068;2023-03-18T13:24:25;18.90;99.90
11617;DHT22;5864;52.998;9.068;2023-03-18T13:27:24;19.60;99.90
11617;DHT22;5864;52.998;9.068;2023-03-18T13:30:23;19.20;1.00
11617;DHT22;5864;52.998;9.068;2023-03-18T13:33:24;19.60;99.90
11617;DHT22;5864;52.998;9.068;2023-03-18T13:36:38;19.50;1.00
11617;DHT22;5864;52.998;9.068;2023-03-18T13:39:36;19.60;1.00
11617;DHT22;5864;52.998;9.068;2023-03-18T13:42:26;19.30;1.00
11617;DHT22;5864;52.998;9.068;2023-03-18T13:45:21;19.60;99.90
11617;DHT22;5864;52.998;9.068;2023-03-18T13:48:12;20.00;1.00
11617;DHT22;5864;52.998;9.068;2023-03-18T13:51:16;19.70;1.00
11617;DHT22;5864;52.998;9.068;2023-03-18T13:54:05;19.60;1.00
11617;DHT22;5864;52.998;9.068;2023-03-18T13:57:15;19.80;99.90
11617;DHT22;5864;52.998;9.068;2023-03-18T14:00:26;20.00;1.00
11617;DHT22;5864;52.998;9.068;2023-03-18T14:03:26;20.30;1.00
11617;DHT22;5864;52.998;9.068;2023-03-18T14:06:21;20.10;1.00
11617;DHT22;5864;52.998;9.068;2023-03-18T14:09:32;20.20;1.00
11617;DHT22;5864;52.998;9.068;2023-03-18T14:12:21;20.40;99.90
11617;DHT22;5864;52.998;9.068;2023-03-18T14:15:40;19.50;1.00
11617;DHT22;5864;52.998;9.068;2023-03-18T14:18:32;19.40;99.90
11617;DHT22;5864;52.998;9.068;2023-03-18T14:21:24;19.60;1.00
11617;DHT22;5864;52.998;9.068;2023-03-18T14:24:12;19.30;1.00
11617;DHT22;5864;52.998;9.068;2023-03-18T14:27:15;18.70;1.00
11617;DHT22;5864;52.998;9.068;2023-03-18T14:30:38;18.40;1.00
11617;DHT22;5864;52.998;9.068;2023-03-18T14:33:56;18.40;1.00
11617;DHT22;5864;52.998;9.068;2023-03-18T14:40:11;18.80;76.80
11617;DHT22;5864;52.998;9.068;2023-03-18T14:43:00;19.10;1.00
11617;DHT22;5864;52.998;9.068;2023-03-18T14:45:46;19.10;99.90
11617;DHT22;5864;52.998;9.068;2023-03-18T14:48:34;19.10;1.00
11617;DHT22;5864;52.998;9.068;2023-03-18T14:51:21;18.90;1.00
11617;DHT22;5864;52.998;9.068;2023-03-18T14:54:17;18.80;1.00
11617;DHT22;5864;52.998;9.068;2023-03-18T14:57:04;18.40;99.90
11617;DHT22;5864;52.998;9.068;2023-03-18T14:59:51;18.40;30.00
11617;DHT22;5864;52.998;9.068;2023-03-18T15:02:37;18.40;1.00
11617;DHT22;5864;52.998;9.068;2023-03-18T15:05:24;18.60;1.00
11617;DHT22;5864;52.998;9.068;2023-03-18T15:08:14;18.50;1.00
11617;DHT22;5864;52.998;9.068;2023-03-18T15:11:02;18.70;1.00
11617;DHT22;5864;52.998;9.068;2023-03-18T15:13:49;18.90;1.00
11617;DHT22;5864;52.998;9.068;2023-03-18T15:16:39;18.70;48.10
11617;DHT22;5864;52.998;9.068;2023-03-18T15:19:25;18.60;99.90
11617;DHT22;5864;52.998;9.068;2023-03-18T15:22:16;18.70;1.00
11617;DHT22;5864;52.998;9.068;2023-03-18T15:25:05;18.70;1.00
11617;DHT22;5864;52.998;9.068;2023-03-18T15:27:53;18.90;1.00
11617;DHT22;5864;52.998;9.068;2023-03-18T15:30:49;19.00;99.90
11617;DHT22;5864;52.998;9.068;2023-03-18T15:33:36;19.10;99.90
11617;DHT22;5864;52.998;9.068;2023-03-18T15:36:23;19.20;99.90
11617;DHT22;5864;52.998;9.068;2023-03-18T15:39:18;19.10;11.60
11617;DHT22;5864;52.998;9.068;2023-03-18T15:42:13;18.80;1.00
11617;DHT22;5864;52.998;9.068;2023-03-18T15:45:00;18.60;99.90
11617;DHT22;5864;52.998;9.068;2023-03-18T15:47:46;18.60;1.00
11617;DHT22;5864;52.998;9.068;2023-03-18T15:50:34;18.50;1.00
11617;DHT22;5864;52.998;9.068;2023-03-18T15:53:22;18.50;1.00
11617;DHT22;5864;52.998;9.068;2023-03-18T15:56:15;18.40;1.00
11617;DHT22;5864;52.998;9.068;2023-03-18T15:59:06;18.20;99.90
11617;DHT22;5864;52.998;9.068;2023-03-18T16:01:53;17.90;1.00
11617;DHT22;5864;52.998;9.068;2023-03-18T16:04:39;18.00;99.90
11617;DHT22;5864;52.998;9.068;2023-03-18T16:07:29;18.00;99.90
11617;DHT22;5864;52.998;9.068;2023-03-18T16:10:16;18.00;99.90
11617;DHT22;5864;52.998;9.068;2023-03-18T16:13:03;17.80;1.00
11617;DHT22;5864;52.998;9.068;2023-03-18T16:15:49;17.90;99.90
11617;DHT22;5864;52.998;9.068;2023-03-18T16:18:35;17.10;1.00
11617;DHT22;5864;52.998;9.068;2023-03-18T16:21:21;17.70;1.00
11617;DHT22;5864;52.998;9.068;2023-03-18T16:24:08;17.90;1.00
11617;DHT22;5864;52.998;9.068;2023-03-18T16:26:55;17.90;1.00
11617;DHT22;5864;52.998;9.068;2023-03-18T16:29:41;17.80;1.00
11617;DHT22;5864;52.998;9.068;2023-03-18T16:32:26;17.80;1.00
11617;DHT22;5864;52.998;9.068;2023-03-18T16:35:13;17.70;1.00
11617;DHT22;5864;52.998;9.068;2023-03-18T16:37:59;17.50;99.90
11617;DHT22;5864;52.998;9.068;2023-03-18T16:40:46;17.40;99.90
11617;DHT22;5864;52.998;9.068;2023-03-18T16:43:32;17.30;1.00
11617;DHT22;5864;52.998;9.068;2023-03-18T16:46:17;17.20;1.00
11617;DHT22;5864;52.998;9.068;2023-03-18T16:49:03;17.00;1.00
11617;DHT22;5864;52.998;9.068;2023-03-18T16:51:49;16.90;59.30
11617;DHT22;5864;52.998;9.068;2023-03-18T16:54:35;16.90;99.90
11617;DHT22;5864;52.998;9.068;2023-03-18T16:57:23;16.70;1.00
11617;DHT22;5864;52.998;9.068;2023-03-18T17:00:17;16.70;99.90
11617;DHT22;5864;52.998;9.068;2023-03-18T17:03:03;16.70;1.00
11617;DHT22;5864;52.998;9.068;2023-03-18T17:05:49;16.60;99.90
11617;DHT22;5864;52.998;9.068;2023-03-18T17:08:35;16.40;99.90
11617;DHT22;5864;52.998;9.068;2023-03-18T17:11:22;16.20;55.90
11617;DHT22;5864;52.998;9.068;2023-03-18T17:14:22;16.00;99.90
11617;DHT22;5864;52.998;9.068;2023-03-18T17:17:15;16.00;1.00
11617;DHT22;5864;52.998;9.068;2023-03-18T17:20:15;15.80;1.00
11617;DHT22;5864;52.998;9.068;2023-03-18T17:23:01;15.70;70.60
11617;DHT22;5864;52.998;9.068;2023-03-18T17:25:49;15.80;48.50
11617;DHT22;5864;52.998;9.068;2023-03-18T17:28:38;15.60;99.90
11617;DHT22;5864;52.998;9.068;2023-03-18T17:31:27;15.60;1.00
11617;DHT22;5864;52.998;9.068;2023-03-18T17:34:14;15.50;1.00
11617;DHT22;5864;52.998;9.068;2023-03-18T17:36:59;15.40;1.00
11617;DHT22;5864;52.998;9.068;2023-03-18T17:39:45;15.40;1.00
11617;DHT22;5864;52.998;9.068;2023-03-18T17:42:33;15.20;1.00
11617;DHT22;5864;52.998;9.068;2023-03-18T17:45:24;15.10;1.00
11617;DHT22;5864;52.998;9.068;2023-03-18T17:48:17;15.00;1.00
11617;DHT22;5864;52.998;9.068;2023-03-18T17:51:06;14.90;1.00
11617;DHT22;5864;52.998;9.068;2023-03-18T17:53:54;14.80;1.00
11617;DHT22;5864;52.998;9.068;2023-03-18T17:56:42;14.80;1.00
11617;DHT22;5864;52.998;9.068;2023-03-18T17:59:27;14.70;1.00
11617;DHT22;5864;52.998;9.068;2023-03-18T18:02:15;14.70;1.00
11617;DHT22;5864;52.998;9.068;2023-03-18T18:05:02;14.60;1.00
11617;DHT22;5864;52.998;9.068;2023-03-18T18:07:48;14.50;7.30
11617;DHT22;5864;52.998;9.068;2023-03-18T18:10:34;14.60;5.60
11617;DHT22;5864;52.998;9.068;2023-03-18T18:13:21;14.50;17.30
11617;DHT22;5864;52.998;9.068;2023-03-18T18:16:08;14.40;28.00
11617;DHT22;5864;52.998;9.068;2023-03-18T18:18:54;14.40;25.70